Time;durP1;ratioP1;P1;durP2;ratioP2;P2;SDS_P1;SDS_P2;PMS_P1;PMS_P2;Temp;Humidity;BMP_temperature;BMP_pressure;BME280_temperature;BME280_humidity;BME280_pressure;Samples;Min_cycle;Max_cycle;Signal;HPM_P1;HPM_P2
2023/03/16 00:02:11;;;;;;;0.50;0.50;;;;;;;12.49;38.65;101882.59;4971366;28;20481;-61
2023/03/16 00:04:37;;;;;;;0.20;0.20;;;;;;;12.47;39.12;101877.44;4971230;28;20519;-59
2023/03/16 00:07:06;;;;;;;0.30;0.30;;;;;;;12.55;38.84;101865.59;4970980;28;20038;-61
2023/03/16 00:09:31;;;;;;;0.30;0.30;;;;;;;12.60;38.51;101863.09;4970164;28;20046;-60
2023/03/16 00:11:58;;;;;;;0.40;0.40;;;;;;;12.11;39.01;101877.09;4971324;28;20501;-60
2023/03/16 00:14:24;;;;;;;0.20;0.20;;;;;;;12.27;38.96;101869.41;4971599;28;20093;-62
2023/03/16 00:16:49;;;;;;;0.32;0.32;;;;;;;12.53;38.46;101879.28;4971546;28;20046;-60
2023/03/16 00:19:15;;;;;;;0.20;0.20;;;;;;;12.42;38.89;101885.34;4970917;28;20055;-62
2023/03/16 00:21:40;;;;;;;0.22;0.22;;;;;;;12.21;39.77;101875.63;4965878;28;20043;-60
2023/03/16 00:24:05;;;;;;;0.30;0.30;;;;;;;12.33;39.24;101879.34;4971322;28;20477;-61
2023/03/16 00:26:31;;;;;;;0.20;0.20;;;;;;;12.16;39.90;101875.47;4971313;28;20054;-60
2023/03/16 00:28:56;;;;;;;0.30;0.30;;;;;;;12.59;39.03;101869.50;4965962;28;20543;-59
2023/03/16 00:31:23;;;;;;;0.43;0.43;;;;;;;12.69;38.85;101875.28;4961829;28;20505;-61
2023/03/16 00:33:49;;;;;;;0.20;0.20;;;;;;;12.71;38.85;101871.34;4961229;28;20079;-60
2023/03/16 00:36:15;;;;;;;0.20;0.20;;;;;;;12.21;39.86;101866.72;4971313;28;20065;-60
2023/03/16 00:38:44;;;;;;;0.20;0.20;;;;;;;12.48;39.13;101864.78;4968210;28;20124;-60
2023/03/16 00:41:13;;;;;;;0.20;0.20;;;;;;;12.71;39.33;101867.81;4959496;28;20062;-61
2023/03/16 00:43:44;;;;;;;0.30;0.30;;;;;;;12.74;39.32;101843.94;4960471;28;20027;-60
2023/03/16 00:46:15;;;;;;;0.30;0.30;;;;;;;12.77;39.46;101843.50;4967842;28;20110;-60
2023/03/16 00:48:42;;;;;;;0.22;0.22;;;;;;;12.36;39.74;101833.09;4955798;28;20070;-60
2023/03/16 00:51:12;;;;;;;0.40;0.40;;;;;;;12.78;39.64;101833.53;4953580;28;20082;-61
2023/03/16 00:53:38;;;;;;;0.40;0.40;;;;;;;12.47;39.99;101834.31;4952255;29;20119;-60
2023/03/16 00:56:04;;;;;;;0.30;0.30;;;;;;;12.40;40.20;101829.97;4952214;28;20043;-60
2023/03/16 00:58:34;;;;;;;0.30;0.30;;;;;;;12.31;40.13;101824.81;4954899;28;20030;-61
2023/03/16 01:01:08;;;;;;;0.32;0.32;;;;;;;12.47;40.60;101834.31;4978477;28;20022;-62
2023/03/16 01:03:34;;;;;;;0.20;0.20;;;;;;;12.42;40.09;101826.03;4990763;28;20042;-60
2023/03/16 01:06:16;;;;;;;0.22;0.22;;;;;;;12.29;40.75;101820.69;4980579;28;20027;-60
2023/03/16 01:08:43;;;;;;;0.28;0.28;;;;;;;12.12;41.14;101814.94;4972118;28;20038;-61
2023/03/16 01:11:11;;;;;;;0.20;0.20;;;;;;;12.62;40.10;101815.97;4986278;28;20049;-60
2023/03/16 01:13:37;;;;;;;0.47;0.47;;;;;;;12.28;40.58;101811.75;4971841;28;20513;-60
2023/03/16 01:16:03;;;;;;;0.32;0.32;;;;;;;12.81;39.82;101798.06;4971864;28;20038;-61
2023/03/16 01:18:33;;;;;;;0.20;0.20;;;;;;;12.57;40.56;101804.19;4971350;28;20034;-59
2023/03/16 01:20:59;;;;;;;0.30;0.30;;;;;;;12.34;40.44;101797.44;4952351;29;20054;-61
2023/03/16 01:23:24;;;;;;;0.20;0.20;;;;;;;12.56;40.56;101799.84;4952396;29;20404;-60
2023/03/16 01:25:52;;;;;;;0.30;0.30;;;;;;;12.90;39.67;101799.44;4952477;29;20031;-60
2023/03/16 01:28:23;;;;;;;0.20;0.20;;;;;;;12.88;39.85;101791.56;4952571;29;20086;-61
2023/03/16 01:30:53;;;;;;;0.28;0.28;;;;;;;12.73;40.06;101788.34;4953771;28;20039;-61
2023/03/16 01:33:20;;;;;;;0.40;0.40;;;;;;;12.42;40.66;101780.22;4955557;29;20046;-60
2023/03/16 01:35:56;;;;;;;0.20;0.20;;;;;;;12.44;40.92;101774.59;4971305;28;20499;-61
2023/03/16 01:38:22;;;;;;;0.40;0.40;;;;;;;12.79;40.08;101774.00;4975155;28;20129;-60
2023/03/16 01:40:50;;;;;;;0.28;0.28;;;;;;;12.71;40.32;101776.13;4974657;28;20217;-61
2023/03/16 01:43:20;;;;;;;0.30;0.30;;;;;;;12.33;41.00;101773.41;4974964;28;20031;-60
2023/03/16 01:45:57;;;;;;;0.20;0.20;;;;;;;12.77;40.62;101778.78;4974538;28;20070;-61
2023/03/16 01:48:25;;;;;;;0.20;0.20;;;;;;;12.27;41.05;101753.53;4974877;28;20042;-61
2023/03/16 01:50:51;;;;;;;0.30;0.30;;;;;;;12.15;41.87;101759.78;4968019;28;20059;-59
2023/03/16 01:53:17;;;;;;;0.20;0.20;;;;;;;12.08;41.73;101757.13;4974511;28;20042;-60
2023/03/16 01:55:43;;;;;;;0.30;0.30;;;;;;;11.81;42.75;101746.63;4974670;28;20046;-59
2023/03/16 01:58:09;;;;;;;0.30;0.30;;;;;;;12.21;41.71;101748.97;4974610;28;20117;-59
2023/03/16 02:00:35;;;;;;;0.20;0.20;;;;;;;12.58;40.78;101751.94;4986328;28;20050;-60
2023/03/16 02:03:10;;;;;;;0.30;0.30;;;;;;;12.59;41.15;101753.56;4991523;28;20039;-61
2023/03/16 02:05:51;;;;;;;0.30;0.30;;;;;;;12.16;42.15;101746.13;4993378;28;20522;-59
2023/03/16 02:08:17;;;;;;;;;;;;;;;12.22;41.78;101749.81;4994233;28;20038;-59
2023/03/16 02:10:44;;;;;;;0.20;0.20;;;;;;;12.39;41.20;101748.28;4993554;28;19917;-60
2023/03/16 02:13:10;;;;;;;0.20;0.20;;;;;;;12.03;41.22;101754.22;4993636;28;20034;-60
2023/03/16 02:15:35;;;;;;;0.25;0.25;;;;;;;12.69;41.22;101749.38;4993570;28;20038;-60
2023/03/16 02:18:01;;;;;;;0.30;0.30;;;;;;;13.07;40.15;101744.75;4993328;28;20402;-60
2023/03/16 02:20:41;;;;;;;0.25;0.25;;;;;;;12.47;41.70;101745.34;4993311;28;20058;-60
2023/03/16 02:23:17;;;;;;;0.30;0.30;;;;;;;12.48;41.38;101741.59;4992635;28;20043;-60
2023/03/16 02:26:16;;;;;;;0.40;0.40;;;;;;;13.13;40.58;101733.09;4993042;28;20106;-59
2023/03/16 02:28:54;;;;;;;0.30;0.30;;;;;;;12.41;41.96;101727.34;4993677;28;20030;-61
2023/03/16 02:31:21;;;;;;;0.20;0.20;;;;;;;12.50;41.49;101723.31;4993757;28;20026;-60
2023/03/16 02:33:49;;;;;;;0.20;0.20;;;;;;;12.61;41.52;101716.44;4992742;28;20117;-60
2023/03/16 02:36:17;;;;;;;0.30;0.30;;;;;;;12.44;42.62;101709.91;4992764;28;20540;-61
2023/03/16 02:38:42;;;;;;;0.30;0.30;;;;;;;12.46;42.25;101714.03;4993046;28;20030;-60
2023/03/16 02:41:12;;;;;;;0.20;0.20;;;;;;;12.48;41.41;101711.13;4992628;28;20035;-62
2023/03/16 02:43:43;;;;;;;0.20;0.20;;;;;;;12.83;41.14;101715.03;4992695;28;20482;-60
2023/03/16 02:46:08;;;;;;;0.30;0.30;;;;;;;12.32;41.85;101707.06;4993648;28;20494;-61
2023/03/16 02:48:58;;;;;;;0.20;0.20;;;;;;;11.90;43.31;101710.34;4992727;28;20041;-60
2023/03/16 02:51:23;;;;;;;0.20;0.20;;;;;;;12.07;42.54;101704.28;4992588;28;20039;-60
2023/03/16 02:53:49;;;;;;;0.20;0.20;;;;;;;12.36;42.41;101700.22;4992932;28;20103;-60
2023/03/16 02:56:14;;;;;;;0.28;0.28;;;;;;;12.20;42.34;101692.63;4992201;28;20498;-61
2023/03/16 02:58:39;;;;;;;0.20;0.20;;;;;;;12.50;41.76;101692.88;4992657;28;20030;-59
2023/03/16 03:01:05;;;;;;;0.30;0.30;;;;;;;12.41;42.23;101694.97;4992411;28;20038;-60
2023/03/16 03:03:33;;;;;;;0.20;0.20;;;;;;;12.56;41.78;101692.81;4992400;28;20049;-61
2023/03/16 03:05:58;;;;;;;0.20;0.20;;;;;;;13.00;41.23;101700.78;4992490;28;20030;-60
2023/03/16 03:08:24;;;;;;;0.30;0.30;;;;;;;12.57;41.82;101696.34;4992420;28;20057;-59
2023/03/16 03:10:49;;;;;;;0.28;0.28;;;;;;;12.59;42.26;101697.78;4992525;28;20398;-61
2023/03/16 03:13:15;;;;;;;0.20;0.20;;;;;;;12.57;42.24;101693.63;4992931;28;20482;-59
2023/03/16 03:15:40;;;;;;;0.20;0.20;;;;;;;12.06;43.15;101691.84;4992962;28;20039;-60
2023/03/16 03:18:06;;;;;;;0.22;0.22;;;;;;;11.85;43.77;101688.63;4992379;28;20108;-61
2023/03/16 03:20:32;;;;;;;0.20;0.20;;;;;;;12.00;43.50;101681.09;4992276;28;20050;-59
2023/03/16 03:22:57;;;;;;;0.32;0.32;;;;;;;12.80;41.76;101691.19;4991997;28;20540;-60
2023/03/16 03:25:22;;;;;;;0.20;0.20;;;;;;;12.20;43.19;101679.97;4993184;28;20027;-60
2023/03/16 03:27:49;;;;;;;0.20;0.20;;;;;;;12.68;41.73;101674.06;4992067;28;20038;-60
2023/03/16 03:30:19;;;;;;;0.20;0.20;;;;;;;13.00;41.75;101672.97;4992110;28;20050;-59
2023/03/16 03:32:45;;;;;;;0.20;0.20;;;;;;;12.92;41.85;101666.00;4991510;28;20093;-61
2023/03/16 03:35:13;;;;;;;0.30;0.30;;;;;;;12.38;42.84;101664.94;4992008;28;20445;-61
2023/03/16 03:37:39;;;;;;;0.20;0.20;;;;;;;12.12;43.74;101660.53;4991443;28;20038;-59
2023/03/16 03:40:06;;;;;;;0.30;0.30;;;;;;;12.71;42.35;101660.97;4992472;28;20079;-60
2023/03/16 03:42:31;;;;;;;0.30;0.30;;;;;;;12.33;43.29;101654.81;4990160;28;20498;-61
2023/03/16 03:44:56;;;;;;;0.30;0.30;;;;;;;12.56;42.51;101659.66;4992005;28;20037;-60
2023/03/16 03:47:22;;;;;;;0.30;0.30;;;;;;;12.56;42.36;101646.97;4991326;28;20484;-60
2023/03/16 03:49:47;;;;;;;0.20;0.20;;;;;;;12.02;44.15;101646.69;4991500;28;22559;-60
2023/03/16 03:52:12;;;;;;;0.20;0.20;;;;;;;12.65;42.12;101642.16;4992266;28;20117;-61
2023/03/16 03:54:38;;;;;;;0.10;0.10;;;;;;;12.53;42.51;101641.19;4991481;28;20034;-61
2023/03/16 03:57:04;;;;;;;0.30;0.30;;;;;;;12.56;42.72;101648.88;4991425;28;20050;-60
2023/03/16 03:59:29;;;;;;;0.40;0.40;;;;;;;12.25;43.55;101645.13;4991581;28;20077;-59
2023/03/16 04:01:55;;;;;;;0.30;0.30;;;;;;;12.13;43.62;101644.13;4991144;28;20034;-60
2023/03/16 04:04:20;;;;;;;0.32;0.32;;;;;;;12.29;43.26;101653.59;4992074;28;20026;-60
2023/03/16 04:06:46;;;;;;;0.30;0.30;;;;;;;12.07;44.36;101654.94;4991197;28;20490;-60
2023/03/16 04:09:12;;;;;;;0.20;0.20;;;;;;;12.69;42.39;101659.53;4991391;28;20038;-59
2023/03/16 04:11:37;;;;;;;0.22;0.22;;;;;;;12.71;42.69;101654.75;4991260;28;20034;-61
2023/03/16 04:14:03;;;;;;;0.30;0.30;;;;;;;12.73;42.76;101650.81;4991487;28;20054;-60
2023/03/16 04:16:29;;;;;;;0.22;0.22;;;;;;;12.20;44.07;101653.03;4991550;28;20088;-60
2023/03/16 04:18:55;;;;;;;0.40;0.40;;;;;;;12.14;44.01;101637.72;4991141;28;20053;-59
2023/03/16 04:21:21;;;;;;;0.32;0.32;;;;;;;12.33;44.12;101641.34;4991182;28;20045;-59
2023/03/16 04:23:48;;;;;;;0.40;0.40;;;;;;;12.82;42.46;101644.09;4990843;28;20498;-60
2023/03/16 04:26:13;;;;;;;0.20;0.20;;;;;;;11.86;45.45;101648.00;4991466;28;20071;-61
2023/03/16 04:28:39;;;;;;;0.40;0.40;;;;;;;12.26;43.92;101640.56;4991378;28;20026;-59
2023/03/16 04:31:09;;;;;;;0.30;0.30;;;;;;;12.42;44.46;101639.22;4991408;28;20034;-62
2023/03/16 04:33:36;;;;;;;0.20;0.20;;;;;;;12.20;45.16;101633.34;4990655;28;20049;-60
2023/03/16 04:36:02;;;;;;;0.20;0.20;;;;;;;12.14;44.75;101624.25;4990818;28;20050;-59
2023/03/16 04:38:29;;;;;;;0.20;0.20;;;;;;;12.38;44.39;101618.06;4991359;28;20027;-60
2023/03/16 04:40:55;;;;;;;0.20;0.20;;;;;;;12.27;44.37;101617.94;4991164;28;20034;-60
2023/03/16 04:43:21;;;;;;;0.25;0.25;;;;;;;12.15;44.66;101620.50;4991249;28;20359;-60
2023/03/16 04:45:47;;;;;;;0.28;0.28;;;;;;;12.32;44.55;101620.81;4990937;28;20517;-60
2023/03/16 04:48:12;;;;;;;0.20;0.20;;;;;;;11.90;45.91;101611.53;4990661;28;20030;-61
2023/03/16 04:50:38;;;;;;;0.20;0.20;;;;;;;12.18;45.00;101613.88;4991017;28;20518;-61
2023/03/16 04:53:03;;;;;;;0.20;0.20;;;;;;;11.78;46.29;101618.63;4990401;28;20050;-59
2023/03/16 04:55:30;;;;;;;0.20;0.20;;;;;;;12.66;44.07;101623.03;4990839;28;20037;-61
2023/03/16 04:57:55;;;;;;;0.20;0.20;;;;;;;12.26;44.97;101619.81;4991352;28;20122;-60
2023/03/16 05:00:22;;;;;;;0.30;0.30;;;;;;;12.60;44.14;101602.34;4973641;28;20125;-59
2023/03/16 05:02:49;;;;;;;0.22;0.22;;;;;;;12.55;44.15;101601.38;4988496;28;20477;-59
2023/03/16 05:05:15;;;;;;;0.20;0.20;;;;;;;11.75;45.80;101607.47;4991040;28;20046;-59
2023/03/16 05:07:41;;;;;;;0.30;0.30;;;;;;;11.84;46.61;101616.94;4993936;28;20117;-60
2023/03/16 05:10:08;;;;;;;0.20;0.20;;;;;;;12.50;44.92;101602.00;4994804;28;20034;-59
2023/03/16 05:12:34;;;;;;;0.30;0.30;;;;;;;12.74;44.30;101600.38;4993910;28;20034;-60
2023/03/16 05:14:59;;;;;;;0.22;0.22;;;;;;;12.10;46.12;101608.72;4994129;28;20041;-60
2023/03/16 05:17:24;;;;;;;0.20;0.20;;;;;;;12.48;45.02;101616.78;4994500;28;20076;-60
2023/03/16 05:19:50;;;;;;;0.20;0.20;;;;;;;12.53;44.73;101608.84;4993901;28;20066;-59
2023/03/16 05:22:16;;;;;;;0.20;0.20;;;;;;;11.92;46.27;101605.91;4994621;28;20512;-60
2023/03/16 05:24:41;;;;;;;0.20;0.20;;;;;;;12.23;46.11;101606.78;4994444;28;20038;-60
2023/03/16 05:27:06;;;;;;;0.20;0.20;;;;;;;12.46;45.40;101602.69;4994240;28;20121;-60
2023/03/16 05:29:32;;;;;;;0.20;0.20;;;;;;;12.04;46.31;101604.19;4994367;28;20403;-59
2023/03/16 05:31:58;;;;;;;0.20;0.20;;;;;;;12.18;46.09;101597.69;4993959;28;20061;-61
2023/03/16 05:34:23;;;;;;;0.28;0.28;;;;;;;12.42;45.50;101598.78;4994237;28;20038;-60
2023/03/16 05:36:49;;;;;;;0.30;0.30;;;;;;;12.53;45.37;101600.75;4993570;28;20093;-61
2023/03/16 05:39:14;;;;;;;0.20;0.20;;;;;;;11.99;46.24;101601.34;4994211;28;20045;-61
2023/03/16 05:41:40;;;;;;;0.30;0.30;;;;;;;12.37;45.51;101612.91;4994027;28;20038;-60
2023/03/16 05:44:05;;;;;;;0.20;0.20;;;;;;;12.29;45.95;101615.84;4992810;28;20038;-60
2023/03/16 05:46:31;;;;;;;0.30;0.30;;;;;;;12.77;44.95;101608.88;4994793;28;20026;-60
2023/03/16 05:48:56;;;;;;;0.30;0.30;;;;;;;12.69;45.02;101611.84;4993862;28;20105;-60
2023/03/16 05:51:25;;;;;;;0.55;0.55;;;;;;;12.92;44.71;101609.34;4993556;28;20235;-60
2023/03/16 05:53:51;;;;;;;0.30;0.30;;;;;;;12.10;46.10;101608.72;4994237;28;20046;-60
2023/03/16 05:56:16;;;;;;;0.30;0.30;;;;;;;12.43;45.57;101616.59;4994685;28;20038;-60
2023/03/16 05:58:42;;;;;;;0.20;0.20;;;;;;;12.48;44.86;101596.00;4993858;28;20484;-60
2023/03/16 06:01:08;;;;;;;0.20;0.20;;;;;;;12.21;45.52;101597.25;4994106;28;20509;-60
2023/03/16 06:03:33;;;;;;;0.30;0.30;;;;;;;12.20;46.29;101590.22;4993511;28;20084;-59
2023/03/16 06:05:58;;;;;;;0.20;0.20;;;;;;;12.43;46.18;101585.06;4993430;28;20125;-60
2023/03/16 06:08:24;;;;;;;0.20;0.20;;;;;;;12.32;45.87;101575.00;4993508;28;20251;-60
2023/03/16 06:10:49;;;;;;;0.30;0.30;;;;;;;12.15;45.89;101580.09;4992715;28;20117;-62
2023/03/16 06:13:14;;;;;;;0.20;0.20;;;;;;;12.55;45.50;101582.50;4994086;28;20091;-60
2023/03/16 06:15:40;;;;;;;0.30;0.30;;;;;;;12.70;44.98;101580.28;4992818;28;20122;-61
2023/03/16 06:18:05;;;;;;;0.20;0.20;;;;;;;12.34;45.86;101581.00;4992299;28;20509;-61
2023/03/16 06:20:30;;;;;;;0.20;0.20;;;;;;;11.48;47.04;101575.22;4984150;28;20035;-60
2023/03/16 06:22:56;;;;;;;0.20;0.20;;;;;;;12.06;46.67;101581.41;4988915;28;20038;-60
2023/03/16 06:25:22;;;;;;;0.28;0.28;;;;;;;12.12;46.08;101579.72;4995053;28;20022;-60
2023/03/16 06:27:48;;;;;;;0.25;0.25;;;;;;;12.05;46.37;101582.44;4979793;28;20508;-60
2023/03/16 06:30:14;;;;;;;0.20;0.20;;;;;;;12.58;45.40;101577.47;4991838;28;20038;-61
2023/03/16 06:32:41;;;;;;;0.25;0.25;;;;;;;11.96;46.80;101574.81;4991527;28;20041;-61
2023/03/16 06:35:08;;;;;;;0.20;0.20;;;;;;;12.02;46.42;101582.88;4989942;28;20046;-61
2023/03/16 06:37:33;;;;;;;0.38;0.38;;;;;;;11.94;46.15;101582.28;4990766;28;20034;-59
2023/03/16 06:39:59;;;;;;;0.20;0.20;;;;;;;11.64;47.74;101578.47;4991397;28;20034;-61
2023/03/16 06:42:24;;;;;;;0.25;0.25;;;;;;;11.69;47.77;101576.84;4991841;28;20045;-59
2023/03/16 06:44:51;;;;;;;0.20;0.20;;;;;;;12.62;45.79;101577.88;4992425;28;20034;-63
2023/03/16 06:47:17;;;;;;;0.20;0.20;;;;;;;12.79;44.28;101570.88;4985881;28;20517;-61
2023/03/16 06:49:42;;;;;;;0.30;0.30;;;;;;;12.29;45.86;101573.56;4981908;28;20030;-61
2023/03/16 06:52:09;;;;;;;0.20;0.20;;;;;;;12.59;45.37;101573.75;4986723;28;20025;-60
2023/03/16 06:54:36;;;;;;;0.35;0.35;;;;;;;12.38;46.07;101576.84;4981186;28;20047;-60
2023/03/16 06:57:02;;;;;;;0.20;0.20;;;;;;;12.42;46.02;101569.13;4979707;28;20049;-59
2023/03/16 06:59:28;;;;;;;0.28;0.28;;;;;;;11.80;47.61;101573.47;4979604;28;20165;-59
2023/03/16 07:01:53;;;;;;;0.20;0.20;;;;;;;11.92;47.78;101566.34;4971714;28;20184;-60
2023/03/16 07:04:18;;;;;;;0.30;0.30;;;;;;;12.26;46.74;101568.59;4975541;28;20030;-61
2023/03/16 07:06:44;;;;;;;0.40;0.40;;;;;;;11.83;48.52;101574.91;4984799;28;20138;-60
2023/03/16 07:09:09;;;;;;;0.20;0.20;;;;;;;11.95;48.29;101575.88;4968923;28;20125;-61
2023/03/16 07:11:35;;;;;;;0.20;0.20;;;;;;;11.95;47.91;101574.00;4987889;28;20145;-60
2023/03/16 07:14:00;;;;;;;0.20;0.20;;;;;;;12.33;47.23;101577.47;4987971;28;20030;-62
2023/03/16 07:16:27;;;;;;;0.30;0.30;;;;;;;12.16;48.38;101575.53;4985389;28;20477;-61
2023/03/16 07:18:53;;;;;;;0.20;0.20;;;;;;;12.28;48.34;101568.41;4988409;28;20030;-60
2023/03/16 07:21:20;;;;;;;0.32;0.32;;;;;;;12.11;48.93;101578.03;4982010;28;20104;-61
2023/03/16 07:23:45;;;;;;;0.40;0.40;;;;;;;12.43;47.83;101574.28;4984048;28;20050;-60
2023/03/16 07:26:11;;;;;;;0.30;0.30;;;;;;;12.73;47.00;101574.47;4987859;28;20049;-59
2023/03/16 07:28:38;;;;;;;0.20;0.20;;;;;;;11.98;49.27;101578.97;4989194;28;20049;-61
2023/03/16 07:31:04;;;;;;;0.30;0.30;;;;;;;12.42;47.82;101583.44;4989663;28;20085;-61
2023/03/16 07:33:33;;;;;;;0.10;0.10;;;;;;;12.35;49.23;101583.47;4987700;28;20105;-60
2023/03/16 07:36:03;;;;;;;0.20;0.20;;;;;;;12.32;49.03;101586.59;4987924;28;20117;-61
2023/03/16 07:38:28;;;;;;;0.20;0.20;;;;;;;13.00;47.84;101590.19;4990868;28;20034;-60
2023/03/16 07:40:54;;;;;;;0.30;0.30;;;;;;;12.98;48.18;101580.66;4990356;28;20113;-60
2023/03/16 07:43:19;;;;;;;0.40;0.40;;;;;;;12.38;49.76;101584.91;4990969;28;20069;-62
2023/03/16 07:45:49;;;;;;;0.32;0.32;;;;;;;12.28;50.80;101571.91;4990371;28;20150;-60
2023/03/16 07:48:14;;;;;;;0.20;0.20;;;;;;;11.63;52.01;101579.53;4989930;28;20034;-60
2023/03/16 07:50:40;;;;;;;0.20;0.20;;;;;;;12.08;51.38;101582.00;4990517;28;20038;-60
2023/03/16 07:53:06;;;;;;;0.40;0.40;;;;;;;12.31;51.02;101579.56;4979046;28;20053;-61
2023/03/16 07:55:31;;;;;;;0.30;0.30;;;;;;;11.75;52.27;101578.69;4984857;28;20255;-61
2023/03/16 07:57:57;;;;;;;0.40;0.40;;;;;;;12.14;52.43;101583.84;4985825;28;20026;-63
2023/03/16 08:00:23;;;;;;;0.30;0.30;;;;;;;12.67;50.84;101581.56;4989308;28;20149;-61
2023/03/16 08:02:50;;;;;;;0.30;0.30;;;;;;;12.15;52.33;101577.41;4989599;28;20034;-62
2023/03/16 08:05:16;;;;;;;0.30;0.30;;;;;;;12.92;51.33;101578.84;4990308;28;20134;-60
2023/03/16 08:07:41;;;;;;;0.20;0.20;;;;;;;12.22;52.50;101583.59;4983384;28;20106;-59
2023/03/16 08:10:07;;;;;;;0.20;0.20;;;;;;;12.35;53.13;101579.94;4985460;28;20363;-60
2023/03/16 08:12:33;;;;;;;0.30;0.30;;;;;;;13.16;50.67;101570.75;4982821;28;20034;-60
2023/03/16 08:14:58;;;;;;;0.30;0.30;;;;;;;13.29;50.22;101564.34;4985181;28;20037;-62
2023/03/16 08:17:24;;;;;;;0.20;0.20;;;;;;;13.14;50.69;101562.03;4988880;28;20125;-61
2023/03/16 08:19:49;;;;;;;0.20;0.20;;;;;;;12.64;51.59;101573.91;4988668;28;20034;-60
2023/03/16 08:22:14;;;;;;;0.10;0.10;;;;;;;12.79;51.16;101573.56;4989922;28;20505;-60
2023/03/16 08:24:41;;;;;;;0.20;0.20;;;;;;;12.14;52.25;101572.22;4996372;28;20042;-60
2023/03/16 08:27:06;;;;;;;0.30;0.30;;;;;;;12.92;51.09;101574.28;5010856;28;20050;-62
2023/03/16 08:29:33;;;;;;;0.20;0.20;;;;;;;12.38;52.39;101564.16;5011060;28;20052;-61
2023/03/16 08:31:59;;;;;;;0.22;0.22;;;;;;;12.23;52.66;101568.22;5010651;28;20113;-59
2023/03/16 08:34:25;;;;;;;0.30;0.30;;;;;;;12.52;51.70;101575.66;5007631;28;20022;-60
2023/03/16 08:36:51;;;;;;;0.30;0.30;;;;;;;12.51;52.02;101570.50;5002280;28;20042;-60
2023/03/16 08:39:16;;;;;;;0.30;0.30;;;;;;;12.73;51.04;101564.50;4994578;28;20121;-60
2023/03/16 08:41:44;;;;;;;0.30;0.30;;;;;;;13.18;50.57;101557.84;4994244;28;20456;-61
2023/03/16 08:44:10;;;;;;;0.20;0.20;;;;;;;12.71;52.00;101560.38;4995347;28;20038;-60
2023/03/16 08:46:35;;;;;;;0.40;0.40;;;;;;;13.31;49.68;101569.53;4995348;28;20064;-60
2023/03/16 08:49:01;;;;;;;0.20;0.20;;;;;;;12.19;53.51;101564.31;4995204;28;20034;-61
2023/03/16 08:51:28;;;;;;;0.30;0.30;;;;;;;12.83;52.02;101556.75;4990117;28;20066;-60
2023/03/16 08:53:54;;;;;;;0.30;0.30;;;;;;;13.02;51.76;101569.19;4992653;28;20045;-62
2023/03/16 08:56:20;;;;;;;0.30;0.30;;;;;;;12.65;52.76;101570.19;4994583;28;20042;-59
2023/03/16 08:58:46;;;;;;;0.10;0.10;;;;;;;12.92;52.20;101571.56;4994642;28;20034;-62
2023/03/16 09:01:19;;;;;;;0.30;0.30;;;;;;;12.96;53.15;101569.25;4987312;28;20517;-60
2023/03/16 09:03:45;;;;;;;0.30;0.30;;;;;;;13.11;52.56;101562.47;4994475;28;20069;-60
2023/03/16 09:06:13;;;;;;;0.30;0.30;;;;;;;13.20;52.50;101563.00;4989733;28;20054;-60
2023/03/16 09:08:39;;;;;;;0.30;0.30;;;;;;;13.30;52.25;101562.50;4975134;28;20494;-62
2023/03/16 09:11:08;;;;;;;0.20;0.20;;;;;;;13.11;52.65;101567.03;4974743;28;20031;-61
2023/03/16 09:13:35;;;;;;;0.30;0.30;;;;;;;13.35;52.58;101560.75;4974974;28;20034;-59
2023/03/16 09:16:01;;;;;;;0.40;0.40;;;;;;;12.99;53.02;101556.13;4975778;28;20031;-60
2023/03/16 09:18:27;;;;;;;0.20;0.20;;;;;;;13.13;53.67;101546.06;4974966;28;20058;-61
2023/03/16 09:21:04;;;;;;;0.30;0.30;;;;;;;14.44;50.59;101549.69;4975021;28;20047;-60
2023/03/16 09:23:31;;;;;;;0.20;0.20;;;;;;;13.85;51.28;101548.69;4974942;28;20031;-59
2023/03/16 09:26:01;;;;;;;0.20;0.20;;;;;;;13.76;51.69;101544.66;4974753;28;20122;-60
2023/03/16 09:28:28;;;;;;;0.10;0.10;;;;;;;14.18;50.37;101541.94;4974155;28;20087;-60
2023/03/16 09:30:55;;;;;;;0.30;0.30;;;;;;;13.82;50.67;101540.19;4990197;28;20054;-58
2023/03/16 09:33:22;;;;;;;0.25;0.25;;;;;;;13.16;53.09;101542.91;4974389;28;20034;-59
2023/03/16 09:35:48;;;;;;;0.30;0.30;;;;;;;13.50;53.01;101526.09;4990664;28;20064;-59
2023/03/16 09:38:13;;;;;;;0.10;0.10;;;;;;;13.88;52.50;101531.19;4994421;28;20057;-59
2023/03/16 09:40:40;;;;;;;0.20;0.20;;;;;;;14.10;51.06;101524.19;4994046;28;20030;-59
2023/03/16 09:43:17;;;;;;;0.30;0.30;;;;;;;14.40;50.91;101516.88;4994334;28;20045;-61
2023/03/16 09:46:01;;;;;;;0.32;0.32;;;;;;;14.49;51.29;101512.75;4993930;28;20030;-62
2023/03/16 09:48:29;;;;;;;0.10;0.10;;;;;;;14.29;50.50;101506.06;4993893;28;20438;-60
2023/03/16 09:50:57;;;;;;;0.40;0.40;;;;;;;14.05;51.50;101510.56;4993559;28;20035;-59
2023/03/16 09:53:39;;;;;;;0.22;0.22;;;;;;;14.69;50.92;101507.00;4993718;28;20490;-60
2023/03/16 09:56:09;;;;;;;0.28;0.28;;;;;;;14.16;51.51;101509.75;4993794;28;20030;-59
2023/03/16 09:58:35;;;;;;;0.20;0.20;;;;;;;14.18;50.98;101513.06;4993630;28;20039;-60
2023/03/16 10:01:18;;;;;;;0.35;0.35;;;;;;;15.36;48.11;101510.91;4985999;28;20046;-60
2023/03/16 10:04:12;;;;;;;0.20;0.20;;;;;;;15.23;49.07;101513.88;4993592;28;20045;-61
2023/03/16 10:06:45;;;;;;;0.20;0.20;;;;;;;15.63;47.75;101506.59;4993261;28;20096;-59
2023/03/16 10:09:28;;;;;;;0.30;0.30;;;;;;;14.94;49.32;101505.69;4993473;28;20585;-60
2023/03/16 10:11:57;;;;;;;0.30;0.30;;;;;;;14.53;49.88;101500.41;4993709;28;20038;-60
2023/03/16 10:14:37;;;;;;;0.30;0.30;;;;;;;14.77;49.93;101499.38;4993135;28;20046;-60
2023/03/16 10:17:18;;;;;;;0.20;0.20;;;;;;;15.24;48.02;101510.09;4993841;28;20038;-60
2023/03/16 10:20:00;;;;;;;0.20;0.20;;;;;;;14.65;49.66;101505.81;4993227;28;20098;-59
2023/03/16 10:22:30;;;;;;;0.30;0.30;;;;;;;14.46;49.72;101504.31;4993679;28;20042;-62
2023/03/16 10:25:22;;;;;;;0.20;0.20;;;;;;;15.23;48.06;101497.63;4993620;28;20568;-60
2023/03/16 10:27:49;;;;;;;0.35;0.35;;;;;;;14.82;48.84;101504.88;4993275;28;20498;-59
2023/03/16 10:30:24;;;;;;;0.20;0.20;;;;;;;15.23;48.60;101503.88;4993121;28;20042;-60
2023/03/16 10:32:50;;;;;;;0.30;0.30;;;;;;;14.67;48.86;101499.13;4993142;28;20035;-59
2023/03/16 10:35:42;;;;;;;0.40;0.40;;;;;;;14.93;49.38;101484.28;4992867;28;20260;-60
2023/03/16 10:38:25;;;;;;;0.25;0.25;;;;;;;15.41;47.26;101492.84;4992904;28;20038;-61
2023/03/16 10:40:52;;;;;;;0.20;0.20;;;;;;;14.75;49.27;101490.66;4993174;28;20030;-60
2023/03/16 10:43:18;;;;;;;0.25;0.25;;;;;;;15.31;46.31;101491.84;4993295;28;20486;-59
2023/03/16 10:45:45;;;;;;;0.20;0.20;;;;;;;14.62;49.01;101490.09;4992850;28;20096;-60
2023/03/16 10:48:17;;;;;;;0.30;0.30;;;;;;;15.15;48.53;101484.47;4992900;28;20030;-61
2023/03/16 10:50:47;;;;;;;0.32;0.32;;;;;;;15.24;47.15;101475.72;4992831;28;20035;-62
2023/03/16 10:53:28;;;;;;;0.20;0.20;;;;;;;15.26;47.82;101484.44;4992717;28;20038;-61
2023/03/16 10:55:59;;;;;;;0.40;0.40;;;;;;;14.94;47.84;101473.22;4992844;28;20031;-62
2023/03/16 10:58:28;;;;;;;0.22;0.22;;;;;;;14.89;48.58;101470.41;4993647;28;20023;-61
2023/03/16 11:00:53;;;;;;;0.40;0.40;;;;;;;15.70;45.88;101472.84;4989662;28;20046;-60
2023/03/16 11:03:26;;;;;;;0.22;0.22;;;;;;;15.96;45.95;101476.84;4991911;28;20037;-60
2023/03/16 11:06:00;;;;;;;0.30;0.30;;;;;;;15.68;45.54;101480.41;4988404;28;20109;-60
2023/03/16 11:08:31;;;;;;;0.20;0.20;;;;;;;15.93;45.33;101469.19;4973169;28;20043;-61
2023/03/16 11:11:01;;;;;;;0.30;0.30;;;;;;;16.22;44.16;101467.22;4973033;28;20043;-60
2023/03/16 11:13:34;;;;;;;0.25;0.25;;;;;;;16.14;44.94;101462.22;4973218;28;20026;-61
2023/03/16 11:16:29;;;;;;;0.20;0.20;;;;;;;17.09;43.06;101462.81;4972665;28;20491;-59
2023/03/16 11:18:57;;;;;;;0.20;0.20;;;;;;;16.65;43.89;101461.94;4932000;29;20044;-60
2023/03/16 11:22:01;;;;;;;0.10;0.10;;;;;;;16.83;43.43;101452.69;4931388;29;20090;-60
2023/03/16 11:24:49;;;;;;;0.20;0.20;;;;;;;16.21;44.62;101457.47;4931764;29;20103;-61
2023/03/16 11:27:31;;;;;;;0.20;0.20;;;;;;;17.02;42.56;101454.84;4931222;29;20039;-61
2023/03/16 11:30:18;;;;;;;0.30;0.30;;;;;;;17.14;42.42;101441.16;4931329;29;20054;-60